sensor_id;sensor_type;location;lat;lon;timestamp;pressure;altitude;pressure_sealevel;temperature;humidity
46534;BME280;32260;52.008;4.752;2023-03-01T00:01:09;103341.22;;;2.46;69.02
46534;BME280;32260;52.008;4.752;2023-03-01T00:03:36;103337.53;;;2.42;68.47
46534;BME280;32260;52.008;4.752;2023-03-01T00:06:03;103339.09;;;2.39;68.99
46534;BME280;32260;52.008;4.752;2023-03-01T00:08:30;103329.44;;;2.38;69.44
46534;BME280;32260;52.008;4.752;2023-03-01T00:13:42;103318.34;;;2.42;68.98
46534;BME280;32260;52.008;4.752;2023-03-01T00:16:12;103323.38;;;2.39;70.49
46534;BME280;32260;52.008;4.752;2023-03-01T00:18:39;103317.41;;;2.41;70.20
46534;BME280;32260;52.008;4.752;2023-03-01T00:21:05;103320.28;;;2.46;69.35
46534;BME280;32260;52.008;4.752;2023-03-01T00:23:33;103321.03;;;2.43;69.44
46534;BME280;32260;52.008;4.752;2023-03-01T00:26:00;103318.34;;;2.42;69.32
46534;BME280;32260;52.008;4.752;2023-03-01T00:28:26;103315.53;;;2.39;68.71
46534;BME280;32260;52.008;4.752;2023-03-01T00:30:53;103320.63;;;2.36;69.40
46534;BME280;32260;52.008;4.752;2023-03-01T00:33:21;103321.38;;;2.33;69.99
46534;BME280;32260;52.008;4.752;2023-03-01T00:35:47;103318.56;;;2.30;70.23
46534;BME280;32260;52.008;4.752;2023-03-01T00:38:13;103317.50;;;2.26;69.30
46534;BME280;32260;52.008;4.752;2023-03-01T00:40:39;103321.75;;;2.24;69.37
46534;BME280;32260;52.008;4.752;2023-03-01T00:43:06;103321.44;;;2.18;69.18
46534;BME280;32260;52.008;4.752;2023-03-01T00:45:33;103309.72;;;2.12;69.71
46534;BME280;32260;52.008;4.752;2023-03-01T00:47:59;103322.56;;;2.07;69.23
46534;BME280;32260;52.008;4.752;2023-03-01T00:50:25;103322.38;;;2.04;69.45
46534;BME280;32260;52.008;4.752;2023-03-01T00:52:54;103323.19;;;2.03;69.20
46534;BME280;32260;52.008;4.752;2023-03-01T00:55:21;103317.06;;;2.02;68.67
46534;BME280;32260;52.008;4.752;2023-03-01T00:57:47;103317.81;;;2.00;69.64
46534;BME280;32260;52.008;4.752;2023-03-01T01:00:13;103312.56;;;2.00;69.87
46534;BME280;32260;52.008;4.752;2023-03-01T01:02:40;103313.66;;;2.03;69.33
46534;BME280;32260;52.008;4.752;2023-03-01T01:05:07;103312.81;;;2.04;69.38
46534;BME280;32260;52.008;4.752;2023-03-01T01:07:33;103317.88;;;2.01;70.88
46534;BME280;32260;52.008;4.752;2023-03-01T01:09:59;103313.72;;;2.05;70.60
46534;BME280;32260;52.008;4.752;2023-03-01T01:12:25;103322.56;;;2.07;70.08
46534;BME280;32260;52.008;4.752;2023-03-01T01:14:52;103321.72;;;2.08;70.85
46534;BME280;32260;52.008;4.752;2023-03-01T01:17:18;103314.88;;;2.10;70.14
46534;BME280;32260;52.008;4.752;2023-03-01T01:19:45;103312.31;;;2.12;70.06
46534;BME280;32260;52.008;4.752;2023-03-01T01:22:11;103321.72;;;2.08;70.53
46534;BME280;32260;52.008;4.752;2023-03-01T01:24:38;103309.47;;;2.07;70.43
46534;BME280;32260;52.008;4.752;2023-03-01T01:27:04;103309.47;;;2.07;69.70
46534;BME280;32260;52.008;4.752;2023-03-01T01:29:30;103298.09;;;2.06;70.21
46534;BME280;32260;52.008;4.752;2023-03-01T01:31:56;103294.59;;;2.06;70.75
46534;BME280;32260;52.008;4.752;2023-03-01T01:34:22;103286.75;;;2.06;70.75
46534;BME280;32260;52.008;4.752;2023-03-01T01:36:50;103286.75;;;2.06;70.59
46534;BME280;32260;52.008;4.752;2023-03-01T01:39:17;103276.31;;;2.06;70.20
46534;BME280;32260;52.008;4.752;2023-03-01T01:41:43;103272.69;;;2.04;70.23
46534;BME280;32260;52.008;4.752;2023-03-01T01:44:15;103261.41;;;2.05;70.66
46534;BME280;32260;52.008;4.752;2023-03-01T01:46:44;103260.59;;;2.06;70.58
46534;BME280;32260;52.008;4.752;2023-03-01T01:49:20;103260.59;;;2.06;70.17
46534;BME280;32260;52.008;4.752;2023-03-01T01:51:51;103264.69;;;2.01;70.55
46534;BME280;32260;52.008;4.752;2023-03-01T01:54:25;103261.09;;;1.99;70.41
46534;BME280;32260;52.008;4.752;2023-03-01T01:56:59;103251.44;;;1.98;70.25
46534;BME280;32260;52.008;4.752;2023-03-01T01:59:29;103252.97;;;1.94;70.96
46534;BME280;32260;52.008;4.752;2023-03-01T02:01:59;103257.94;;;1.89;70.49
46534;BME280;32260;52.008;4.752;2023-03-01T02:04:26;103261.22;;;1.85;70.44
46534;BME280;32260;52.008;4.752;2023-03-01T02:07:05;103253.31;;;1.84;70.18
46534;BME280;32260;52.008;4.752;2023-03-01T02:09:34;103259.25;;;1.81;70.27
46534;BME280;32260;52.008;4.752;2023-03-01T02:12:01;103267.84;;;1.78;70.57
46534;BME280;32260;52.008;4.752;2023-03-01T02:14:27;103259.81;;;1.75;70.50
46534;BME280;32260;52.008;4.752;2023-03-01T02:16:54;103259.72;;;1.74;70.57
46534;BME280;32260;52.008;4.752;2023-03-01T02:19:31;103250.28;;;1.76;70.54
46534;BME280;32260;52.008;4.752;2023-03-01T02:22:24;103249.47;;;1.77;70.71
46534;BME280;32260;52.008;4.752;2023-03-01T02:27:41;103242.25;;;1.73;69.54
46534;BME280;32260;52.008;4.752;2023-03-01T02:30:12;103244.38;;;1.64;69.85
46534;BME280;32260;52.008;4.752;2023-03-01T02:32:40;103247.59;;;1.59;70.37
46534;BME280;32260;52.008;4.752;2023-03-01T02:35:12;103249.97;;;1.55;70.18
46534;BME280;32260;52.008;4.752;2023-03-01T02:37:40;103245.97;;;1.61;70.04
46534;BME280;32260;52.008;4.752;2023-03-01T02:40:11;103245.22;;;1.48;69.59
46534;BME280;32260;52.008;4.752;2023-03-01T02:42:47;103246.75;;;1.44;70.70
46534;BME280;32260;52.008;4.752;2023-03-01T02:45:15;103243.78;;;1.38;69.89
46534;BME280;32260;52.008;4.752;2023-03-01T02:47:42;103235.69;;;1.33;70.47
46534;BME280;32260;52.008;4.752;2023-03-01T02:55:43;103226.06;;;1.32;70.71
46534;BME280;32260;52.008;4.752;2023-03-01T02:58:10;103225.97;;;1.31;70.38
46534;BME280;32260;52.008;4.752;2023-03-01T03:00:40;103225.97;;;1.31;69.96
46534;BME280;32260;52.008;4.752;2023-03-01T03:03:15;103224.88;;;1.27;70.06
46534;BME280;32260;52.008;4.752;2023-03-01T03:05:41;103217.78;;;1.24;70.40
46534;BME280;32260;52.008;4.752;2023-03-01T03:08:08;103220.41;;;1.24;70.14
46534;BME280;32260;52.008;4.752;2023-03-01T03:10:36;103218.69;;;1.25;70.31
46534;BME280;32260;52.008;4.752;2023-03-01T03:13:07;103214.38;;;1.25;70.59
46534;BME280;32260;52.008;4.752;2023-03-01T03:15:34;103215.09;;;1.23;70.55
46534;BME280;32260;52.008;4.752;2023-03-01T03:18:07;103222.84;;;1.21;70.43
46534;BME280;32260;52.008;4.752;2023-03-01T03:20:34;103208.63;;;1.16;70.36
46534;BME280;32260;52.008;4.752;2023-03-01T03:23:00;103217.19;;;1.13;69.53
46534;BME280;32260;52.008;4.752;2023-03-01T03:25:28;103217.81;;;1.09;70.39
46534;BME280;32260;52.008;4.752;2023-03-01T03:27:55;103207.13;;;1.05;69.67
46534;BME280;32260;52.008;4.752;2023-03-01T03:30:25;103214.75;;;1.02;69.69
46534;BME280;32260;52.008;4.752;2023-03-01T03:32:52;103209.38;;;0.99;69.87
46534;BME280;32260;52.008;4.752;2023-03-01T03:35:20;103208.47;;;0.98;69.92
46534;BME280;32260;52.008;4.752;2023-03-01T03:37:47;103204.97;;;0.98;70.16
46534;BME280;32260;52.008;4.752;2023-03-01T03:40:33;103208.47;;;0.98;69.18
46534;BME280;32260;52.008;4.752;2023-03-01T03:43:01;103201.19;;;0.92;68.57
46534;BME280;32260;52.008;4.752;2023-03-01T03:45:27;103205.13;;;0.86;68.89
46534;BME280;32260;52.008;4.752;2023-03-01T03:47:53;103201.28;;;0.79;68.80
46534;BME280;32260;52.008;4.752;2023-03-01T03:50:19;103202.00;;;0.76;69.03
46534;BME280;32260;52.008;4.752;2023-03-01T03:52:45;103199.31;;;0.75;68.59
46534;BME280;32260;52.008;4.752;2023-03-01T03:55:12;103192.09;;;0.71;68.69
46534;BME280;32260;52.008;4.752;2023-03-01T03:57:40;103193.75;;;0.69;69.31
46534;BME280;32260;52.008;4.752;2023-03-01T04:00:10;103193.53;;;0.66;69.30
46534;BME280;32260;52.008;4.752;2023-03-01T04:02:41;103193.53;;;0.66;70.00
46534;BME280;32260;52.008;4.752;2023-03-01T04:05:08;103190.94;;;0.66;69.96
46534;BME280;32260;52.008;4.752;2023-03-01T04:07:36;103194.53;;;0.68;69.50
46534;BME280;32260;52.008;4.752;2023-03-01T04:10:05;103194.63;;;0.69;69.36
46534;BME280;32260;52.008;4.752;2023-03-01T04:12:33;103196.34;;;0.69;70.26
46534;BME280;32260;52.008;4.752;2023-03-01T04:15:00;103189.56;;;0.72;70.19
46534;BME280;32260;52.008;4.752;2023-03-01T04:17:27;103194.09;;;0.75;70.81
46534;BME280;32260;52.008;4.752;2023-03-01T04:19:53;103190.84;;;0.79;70.56
46534;BME280;32260;52.008;4.752;2023-03-01T04:22:19;103197.16;;;0.83;70.48
46534;BME280;32260;52.008;4.752;2023-03-01T04:24:45;103192.81;;;0.83;70.95
46534;BME280;32260;52.008;4.752;2023-03-01T04:27:12;103185.06;;;0.85;71.69
46534;BME280;32260;52.008;4.752;2023-03-01T04:29:38;103194.78;;;0.87;71.14
46534;BME280;32260;52.008;4.752;2023-03-01T04:32:04;103186.16;;;0.88;70.98
46534;BME280;32260;52.008;4.752;2023-03-01T04:34:30;103190.47;;;0.88;71.25
46534;BME280;32260;52.008;4.752;2023-03-01T04:36:57;103194.78;;;0.87;70.30
46534;BME280;32260;52.008;4.752;2023-03-01T04:39:23;103189.25;;;0.81;70.51
46534;BME280;32260;52.008;4.752;2023-03-01T04:41:49;103183.91;;;0.79;70.10
46534;BME280;32260;52.008;4.752;2023-03-01T04:44:15;103185.44;;;0.76;70.39
46534;BME280;32260;52.008;4.752;2023-03-01T04:46:41;103177.44;;;0.73;69.97
46534;BME280;32260;52.008;4.752;2023-03-01T04:49:07;103171.22;;;0.71;69.54
46534;BME280;32260;52.008;4.752;2023-03-01T04:51:33;103178.09;;;0.69;69.83
46534;BME280;32260;52.008;4.752;2023-03-01T04:53:59;103176.28;;;0.68;69.82
46534;BME280;32260;52.008;4.752;2023-03-01T04:56:27;103172.75;;;0.67;69.73
46534;BME280;32260;52.008;4.752;2023-03-01T04:58:53;103169.06;;;0.63;69.01
46534;BME280;32260;52.008;4.752;2023-03-01T05:01:20;103160.06;;;0.58;68.55
46534;BME280;32260;52.008;4.752;2023-03-01T05:03:49;103155.66;;;0.57;68.61
46534;BME280;32260;52.008;4.752;2023-03-01T05:06:16;103157.22;;;0.54;69.53
46534;BME280;32260;52.008;4.752;2023-03-01T05:08:44;103152.69;;;0.51;69.63
46534;BME280;32260;52.008;4.752;2023-03-01T05:11:11;103157.81;;;0.50;69.40
46534;BME280;32260;52.008;4.752;2023-03-01T05:13:38;103149.91;;;0.48;69.05
46534;BME280;32260;52.008;4.752;2023-03-01T05:16:07;103150.63;;;0.45;68.92
46534;BME280;32260;52.008;4.752;2023-03-01T05:18:37;103151.44;;;0.44;69.08
46534;BME280;32260;52.008;4.752;2023-03-01T05:21:06;103150.56;;;0.44;69.77
46534;BME280;32260;52.008;4.752;2023-03-01T05:23:33;103143.53;;;0.43;70.18
46534;BME280;32260;52.008;4.752;2023-03-01T05:26:01;103140.91;;;0.43;69.41
46534;BME280;32260;52.008;4.752;2023-03-01T05:28:28;103133.91;;;0.42;68.98
46534;BME280;32260;52.008;4.752;2023-03-01T05:30:55;103135.63;;;0.41;69.23
46534;BME280;32260;52.008;4.752;2023-03-01T05:33:21;103127.88;;;0.43;69.38
46534;BME280;32260;52.008;4.752;2023-03-01T05:35:48;103123.47;;;0.42;69.60
46534;BME280;32260;52.008;4.752;2023-03-01T05:38:15;103111.16;;;0.39;69.48
46534;BME280;32260;52.008;4.752;2023-03-01T05:40:43;103108.63;;;0.41;70.03
46534;BME280;32260;52.008;4.752;2023-03-01T05:43:10;103103.50;;;0.42;70.14
46534;BME280;32260;52.008;4.752;2023-03-01T05:45:38;103111.22;;;0.41;70.21
46534;BME280;32260;52.008;4.752;2023-03-01T05:48:05;103110.28;;;0.39;70.29
46534;BME280;32260;52.008;4.752;2023-03-01T05:50:35;103110.06;;;0.36;70.64
46534;BME280;32260;52.008;4.752;2023-03-01T05:53:05;103117.44;;;0.28;70.95
46534;BME280;32260;52.008;4.752;2023-03-01T05:55:32;103113.56;;;0.21;70.15
46534;BME280;32260;52.008;4.752;2023-03-01T05:58:00;103108.97;;;0.17;69.91
46534;BME280;32260;52.008;4.752;2023-03-01T06:00:28;103108.63;;;0.11;70.32
46534;BME280;32260;52.008;4.752;2023-03-01T06:02:55;103103.25;;;0.08;70.35
46534;BME280;32260;52.008;4.752;2023-03-01T06:05:21;103108.34;;;0.06;70.27
46534;BME280;32260;52.008;4.752;2023-03-01T06:07:48;103109.16;;;0.05;70.43
46534;BME280;32260;52.008;4.752;2023-03-01T06:10:16;103106.44;;;0.04;70.07
46534;BME280;32260;52.008;4.752;2023-03-01T06:12:43;103108.09;;;0.02;70.73
46534;BME280;32260;52.008;4.752;2023-03-01T06:15:12;103116.69;;;0.01;70.90
46534;BME280;32260;52.008;4.752;2023-03-01T06:17:40;103111.50;;;0.01;70.79
46534;BME280;32260;52.008;4.752;2023-03-01T06:20:11;103108.25;;;0.05;71.08
46534;BME280;32260;52.008;4.752;2023-03-01T06:22:38;103111.66;;;0.04;70.79
46534;BME280;32260;52.008;4.752;2023-03-01T06:25:05;103111.84;;;0.07;71.09
46534;BME280;32260;52.008;4.752;2023-03-01T06:27:31;103125.06;;;0.10;70.49
46534;BME280;32260;52.008;4.752;2023-03-01T06:29:57;103122.44;;;0.10;70.72
46534;BME280;32260;52.008;4.752;2023-03-01T06:32:23;103117.25;;;0.10;69.88
46534;BME280;32260;52.008;4.752;2023-03-01T06:34:50;103117.06;;;0.07;70.32
46534;BME280;32260;52.008;4.752;2023-03-01T06:37:16;103127.50;;;0.07;70.90
46534;BME280;32260;52.008;4.752;2023-03-01T06:39:42;103125.19;;;0.11;70.89
46534;BME280;32260;52.008;4.752;2023-03-01T06:42:09;103124.47;;;0.14;70.43
46534;BME280;32260;52.008;4.752;2023-03-01T06:44:36;103116.63;;;0.14;69.74
46534;BME280;32260;52.008;4.752;2023-03-01T06:47:03;103124.34;;;0.12;69.91
46534;BME280;32260;52.008;4.752;2023-03-01T06:49:29;103123.38;;;0.10;70.14
46534;BME280;32260;52.008;4.752;2023-03-01T06:51:56;103126.94;;;0.12;70.47
46534;BME280;32260;52.008;4.752;2023-03-01T06:54:22;103122.75;;;0.14;70.73
46534;BME280;32260;52.008;4.752;2023-03-01T06:56:49;103126.50;;;0.20;70.31
46534;BME280;32260;52.008;4.752;2023-03-01T06:59:16;103118.78;;;0.21;70.82
46534;BME280;32260;52.008;4.752;2023-03-01T07:01:42;103116.38;;;0.24;70.41
46534;BME280;32260;52.008;4.752;2023-03-01T07:04:09;103116.72;;;0.30;70.84
46534;BME280;32260;52.008;4.752;2023-03-01T07:06:36;103117.81;;;0.34;70.79
46534;BME280;32260;52.008;4.752;2023-03-01T07:09:02;103124.19;;;0.39;71.17
46534;BME280;32260;52.008;4.752;2023-03-01T07:11:28;103123.56;;;0.43;71.21
46534;BME280;32260;52.008;4.752;2023-03-01T07:13:54;103116.88;;;0.48;71.20
46534;BME280;32260;52.008;4.752;2023-03-01T07:16:21;103122.38;;;0.53;71.58
46534;BME280;32260;52.008;4.752;2023-03-01T07:18:47;103121.75;;;0.57;71.32
46534;BME280;32260;52.008;4.752;2023-03-01T07:21:14;103123.75;;;0.61;70.62
46534;BME280;32260;52.008;4.752;2023-03-01T07:23:40;103125.53;;;0.62;71.18
46534;BME280;32260;52.008;4.752;2023-03-01T07:26:07;103130.91;;;0.66;71.20
46534;BME280;32260;52.008;4.752;2023-03-01T07:28:33;103137.22;;;0.69;70.83
46534;BME280;32260;52.008;4.752;2023-03-01T07:31:03;103133.16;;;0.74;71.04
46534;BME280;32260;52.008;4.752;2023-03-01T07:33:29;103135.25;;;0.80;71.14
46534;BME280;32260;52.008;4.752;2023-03-01T07:35:58;103132.13;;;0.87;71.46
46534;BME280;32260;52.008;4.752;2023-03-01T07:38:25;103133.31;;;0.92;71.67
46534;BME280;32260;52.008;4.752;2023-03-01T07:40:51;103135.38;;;0.98;71.63
46534;BME280;32260;52.008;4.752;2023-03-01T07:43:17;103135.63;;;1.03;71.39
46534;BME280;32260;52.008;4.752;2023-03-01T07:45:44;103134.97;;;1.07;71.43
46534;BME280;32260;52.008;4.752;2023-03-01T07:48:10;103138.84;;;1.13;71.20
46534;BME280;32260;52.008;4.752;2023-03-01T07:50:36;103132.06;;;1.17;71.75
46534;BME280;32260;52.008;4.752;2023-03-01T07:53:02;103129.72;;;1.22;71.21
46534;BME280;32260;52.008;4.752;2023-03-01T07:55:28;103133.41;;;1.25;71.36
46534;BME280;32260;52.008;4.752;2023-03-01T07:57:54;103126.63;;;1.29;71.46
46534;BME280;32260;52.008;4.752;2023-03-01T08:00:20;103129.31;;;1.31;71.26
46534;BME280;32260;52.008;4.752;2023-03-01T08:02:46;103134.75;;;1.34;71.24
46534;BME280;32260;52.008;4.752;2023-03-01T08:05:12;103125.34;;;1.37;71.23
46534;BME280;32260;52.008;4.752;2023-03-01T08:07:39;103126.44;;;1.41;70.97
46534;BME280;32260;52.008;4.752;2023-03-01T08:10:05;103124.97;;;1.46;71.28
46534;BME280;32260;52.008;4.752;2023-03-01T08:12:31;103125.13;;;1.49;71.26
46534;BME280;32260;52.008;4.752;2023-03-01T08:14:57;103126.19;;;1.53;70.95
46534;BME280;32260;52.008;4.752;2023-03-01T08:17:23;103131.66;;;1.57;70.64
46534;BME280;32260;52.008;4.752;2023-03-01T08:19:50;103134.44;;;1.60;71.16
46534;BME280;32260;52.008;4.752;2023-03-01T08:22:16;103120.72;;;1.65;70.82
46534;BME280;32260;52.008;4.752;2023-03-01T08:24:42;103121.06;;;1.71;70.77
46534;BME280;32260;52.008;4.752;2023-03-01T08:27:08;103123.00;;;1.75;70.69
46534;BME280;32260;52.008;4.752;2023-03-01T08:29:34;103116.31;;;1.80;70.76
46534;BME280;32260;52.008;4.752;2023-03-01T08:32:00;103113.94;;;1.85;70.46
46534;BME280;32260;52.008;4.752;2023-03-01T08:34:26;103115.16;;;1.91;70.45
46534;BME280;32260;52.008;4.752;2023-03-01T08:36:52;103106.75;;;1.97;70.46
46534;BME280;32260;52.008;4.752;2023-03-01T08:39:19;103111.44;;;2.04;70.49
46534;BME280;32260;52.008;4.752;2023-03-01T08:41:46;103105.81;;;2.13;70.33
46534;BME280;32260;52.008;4.752;2023-03-01T08:44:14;103112.31;;;2.21;70.29
46534;BME280;32260;52.008;4.752;2023-03-01T08:46:42;103117.94;;;2.29;70.11
46534;BME280;32260;52.008;4.752;2023-03-01T08:49:12;103109.66;;;2.38;70.23
46534;BME280;32260;52.008;4.752;2023-03-01T08:51:39;103103.09;;;2.46;70.05
46534;BME280;32260;52.008;4.752;2023-03-01T08:54:09;103105.34;;;2.56;70.57
46534;BME280;32260;52.008;4.752;2023-03-01T08:56:37;103101.41;;;2.65;70.25
46534;BME280;32260;52.008;4.752;2023-03-01T08:59:03;103104.38;;;2.72;70.53
46534;BME280;32260;52.008;4.752;2023-03-01T09:01:29;103100.56;;;2.84;70.16
46534;BME280;32260;52.008;4.752;2023-03-01T09:03:55;103097.50;;;2.92;69.78
46534;BME280;32260;52.008;4.752;2023-03-01T09:06:21;103093.75;;;3.05;69.73
46534;BME280;32260;52.008;4.752;2023-03-01T09:08:49;103091.72;;;3.18;69.29
46534;BME280;32260;52.008;4.752;2023-03-01T09:11:19;103090.63;;;3.32;68.91
46534;BME280;32260;52.008;4.752;2023-03-01T09:13:46;103075.41;;;3.43;68.79
46534;BME280;32260;52.008;4.752;2023-03-01T09:16:14;103078.63;;;3.57;68.93
46534;BME280;32260;52.008;4.752;2023-03-01T09:18:40;103080.06;;;3.70;68.65
46534;BME280;32260;52.008;4.752;2023-03-01T09:21:09;103070.94;;;3.81;68.04
46534;BME280;32260;52.008;4.752;2023-03-01T09:23:39;103067.97;;;3.93;67.84
46534;BME280;32260;52.008;4.752;2023-03-01T09:26:08;103069.34;;;4.04;67.76
46534;BME280;32260;52.008;4.752;2023-03-01T09:28:35;103066.25;;;4.15;67.44
46534;BME280;32260;52.008;4.752;2023-03-01T09:31:03;103069.28;;;4.24;66.38
46534;BME280;32260;52.008;4.752;2023-03-01T09:33:31;103063.63;;;4.36;66.77
46534;BME280;32260;52.008;4.752;2023-03-01T09:38:38;103059.41;;;4.61;65.54
46534;BME280;32260;52.008;4.752;2023-03-01T09:41:18;103062.56;;;4.75;65.74
46534;BME280;32260;52.008;4.752;2023-03-01T09:43:51;103057.75;;;4.85;65.11
46534;BME280;32260;52.008;4.752;2023-03-01T09:46:22;103062.53;;;4.96;65.71
46534;BME280;32260;52.008;4.752;2023-03-01T09:48:56;103067.44;;;5.09;63.31
46534;BME280;32260;52.008;4.752;2023-03-01T09:51:29;103068.72;;;5.21;63.73
46534;BME280;32260;52.008;4.752;2023-03-01T09:53:57;103059.41;;;5.29;63.61
46534;BME280;32260;52.008;4.752;2023-03-01T09:56:39;103052.94;;;5.43;62.44
46534;BME280;32260;52.008;4.752;2023-03-01T10:10:08;103044.44;;;6.01;60.63
46534;BME280;32260;52.008;4.752;2023-03-01T10:12:43;103045.78;;;6.13;61.72
46534;BME280;32260;52.008;4.752;2023-03-01T10:18:10;103032.50;;;6.36;60.46
46534;BME280;32260;52.008;4.752;2023-03-01T10:21:13;103031.09;;;6.47;59.64
46534;BME280;32260;52.008;4.752;2023-03-01T10:23:39;103033.88;;;6.52;60.88
46534;BME280;32260;52.008;4.752;2023-03-01T10:26:24;103021.19;;;6.68;57.40
46534;BME280;32260;52.008;4.752;2023-03-01T10:29:00;103019.53;;;6.71;58.51
46534;BME280;32260;52.008;4.752;2023-03-01T10:31:41;103017.22;;;6.80;57.76
46534;BME280;32260;52.008;4.752;2023-03-01T10:36:52;103012.41;;;6.96;55.65
46534;BME280;32260;52.008;4.752;2023-03-01T10:39:25;103008.44;;;7.10;58.58
46534;BME280;32260;52.008;4.752;2023-03-01T10:44:37;103014.13;;;7.26;55.03
46534;BME280;32260;52.008;4.752;2023-03-01T10:47:03;103012.53;;;7.31;54.87
46534;BME280;32260;52.008;4.752;2023-03-01T10:49:30;103008.44;;;7.42;54.82
46534;BME280;32260;52.008;4.752;2023-03-01T10:52:18;103001.00;;;7.59;55.29
46534;BME280;32260;52.008;4.752;2023-03-01T10:54:54;102994.13;;;7.66;55.01
46534;BME280;32260;52.008;4.752;2023-03-01T10:57:32;102993.56;;;7.76;55.04
46534;BME280;32260;52.008;4.752;2023-03-01T11:00:20;102973.41;;;7.80;52.90
46534;BME280;32260;52.008;4.752;2023-03-01T11:02:50;102968.22;;;7.85;50.67
46534;BME280;32260;52.008;4.752;2023-03-01T11:05:22;102961.41;;;7.93;51.01
46534;BME280;32260;52.008;4.752;2023-03-01T11:10:34;102961.88;;;8.12;52.10
46534;BME280;32260;52.008;4.752;2023-03-01T11:13:15;102947.16;;;8.23;51.44
46534;BME280;32260;52.008;4.752;2023-03-01T11:15:42;102949.03;;;8.27;51.19
46534;BME280;32260;52.008;4.752;2023-03-01T11:18:20;102933.44;;;8.38;49.34
46534;BME280;32260;52.008;4.752;2023-03-01T11:20:47;102932.66;;;8.43;50.26
46534;BME280;32260;52.008;4.752;2023-03-01T11:23:15;102928.47;;;8.50;49.14
46534;BME280;32260;52.008;4.752;2023-03-01T11:25:56;102925.97;;;8.58;49.07
46534;BME280;32260;52.008;4.752;2023-03-01T11:28:24;102940.25;;;8.66;48.37
46534;BME280;32260;52.008;4.752;2023-03-01T11:31:09;102928.06;;;8.74;47.63
46534;BME280;32260;52.008;4.752;2023-03-01T11:33:50;102936.13;;;8.79;48.10
46534;BME280;32260;52.008;4.752;2023-03-01T11:36:30;102930.97;;;8.87;46.64
46534;BME280;32260;52.008;4.752;2023-03-01T11:39:01;102934.59;;;8.90;46.79
46534;BME280;32260;52.008;4.752;2023-03-01T11:41:31;102924.16;;;8.98;47.19
46534;BME280;32260;52.008;4.752;2023-03-01T11:44:10;102926.16;;;9.10;47.34
46534;BME280;32260;52.008;4.752;2023-03-01T11:49:32;102915.97;;;9.30;47.16
46534;BME280;32260;52.008;4.752;2023-03-01T11:58:21;102905.06;;;9.62;45.14
46534;BME280;32260;52.008;4.752;2023-03-01T12:03:40;102892.75;;;9.64;43.46
46534;BME280;32260;52.008;4.752;2023-03-01T12:06:45;102899.03;;;9.71;43.90
46534;BME280;32260;52.008;4.752;2023-03-01T12:12:31;102893.25;;;9.95;45.36
46534;BME280;32260;52.008;4.752;2023-03-01T12:20:47;102884.59;;;10.06;43.02
46534;BME280;32260;52.008;4.752;2023-03-01T12:29:02;102867.97;;;10.19;41.85
46534;BME280;32260;52.008;4.752;2023-03-01T12:35:58;102857.56;;;10.33;42.86
46534;BME280;32260;52.008;4.752;2023-03-01T12:38:02;102866.53;;;10.38;43.25
46534;BME280;32260;52.008;4.752;2023-03-01T12:40:47;102861.28;;;10.43;42.36
46534;BME280;32260;52.008;4.752;2023-03-01T12:51:26;102855.25;;;10.53;41.22
46534;BME280;32260;52.008;4.752;2023-03-01T12:53:55;102845.50;;;10.52;40.17
46534;BME280;32260;52.008;4.752;2023-03-01T12:56:25;102841.16;;;10.57;42.41
46534;BME280;32260;52.008;4.752;2023-03-01T12:59:22;102841.28;;;10.70;42.36
46534;BME280;32260;52.008;4.752;2023-03-01T13:02:21;102840.50;;;10.78;41.05
46534;BME280;32260;52.008;4.752;2023-03-01T13:07:38;102848.53;;;10.83;41.30
46534;BME280;32260;52.008;4.752;2023-03-01T13:18:00;102836.28;;;10.97;41.33
46534;BME280;32260;52.008;4.752;2023-03-01T13:23:07;102815.16;;;11.07;39.22
46534;BME280;32260;52.008;4.752;2023-03-01T13:33:55;102795.91;;;11.32;38.92
46534;BME280;32260;52.008;4.752;2023-03-01T13:41:57;102765.13;;;11.52;39.90
46534;BME280;32260;52.008;4.752;2023-03-01T13:52:38;102758.16;;;11.74;38.14
46534;BME280;32260;52.008;4.752;2023-03-01T13:57:56;102751.09;;;11.76;39.77
46534;BME280;32260;52.008;4.752;2023-03-01T14:03:20;102747.66;;;11.95;39.32
46534;BME280;32260;52.008;4.752;2023-03-01T14:06:07;102745.94;;;11.97;37.51
46534;BME280;32260;52.008;4.752;2023-03-01T14:08:35;102745.00;;;11.95;38.73
46534;BME280;32260;52.008;4.752;2023-03-01T14:14:59;102730.88;;;12.01;36.80
46534;BME280;32260;52.008;4.752;2023-03-01T14:17:04;102722.06;;;12.04;37.81
46534;BME280;32260;52.008;4.752;2023-03-01T14:19:34;102726.47;;;12.02;37.63
46534;BME280;32260;52.008;4.752;2023-03-01T14:22:34;102715.00;;;12.09;37.18
46534;BME280;32260;52.008;4.752;2023-03-01T14:24:52;102715.00;;;12.12;36.49
46534;BME280;32260;52.008;4.752;2023-03-01T14:27:19;102704.38;;;12.15;35.81
46534;BME280;32260;52.008;4.752;2023-03-01T14:29:55;102696.41;;;12.18;36.33
46534;BME280;32260;52.008;4.752;2023-03-01T14:32:26;102692.84;;;12.08;36.17
46534;BME280;32260;52.008;4.752;2023-03-01T14:34:52;102690.16;;;12.10;36.41
46534;BME280;32260;52.008;4.752;2023-03-01T14:39:56;102677.78;;;12.09;36.79
46534;BME280;32260;52.008;4.752;2023-03-01T14:42:25;102679.53;;;12.07;37.44
46534;BME280;32260;52.008;4.752;2023-03-01T14:44:54;102683.06;;;12.00;37.71
46534;BME280;32260;52.008;4.752;2023-03-01T14:47:27;102677.78;;;12.09;38.10
46534;BME280;32260;52.008;4.752;2023-03-01T14:49:59;102680.44;;;12.09;37.80
46534;BME280;32260;52.008;4.752;2023-03-01T14:52:35;102677.78;;;12.13;37.96
46534;BME280;32260;52.008;4.752;2023-03-01T14:55:04;102674.22;;;12.10;37.24
46534;BME280;32260;52.008;4.752;2023-03-01T14:57:31;102675.13;;;12.12;37.64
46534;BME280;32260;52.008;4.752;2023-03-01T15:00:00;102674.25;;;12.13;37.48
46534;BME280;32260;52.008;4.752;2023-03-01T15:02:31;102669.81;;;12.13;38.96
46534;BME280;32260;52.008;4.752;2023-03-01T15:05:01;102668.94;;;12.13;37.46
46534;BME280;32260;52.008;4.752;2023-03-01T15:07:33;102665.41;;;12.12;37.23
46534;BME280;32260;52.008;4.752;2023-03-01T15:10:00;102657.44;;;12.12;37.85
46534;BME280;32260;52.008;4.752;2023-03-01T15:18:03;102651.19;;;11.98;38.50